Time;durP1;ratioP1;P1;durP2;ratioP2;P2;SDS_P1;SDS_P2;PMS_P1;PMS_P2;Temp;Humidity;BMP_temperature;BMP_pressure;BME280_temperature;BME280_humidity;BME280_pressure;Samples;Min_cycle;Max_cycle;Signal;HPM_P1;HPM_P2
2023/07/09 00:01:36;;;;;;;7.28;4.78;;;22.10;90.40;;;;;;5043562;28;20268;-74
2023/07/09 00:04:22;;;;;;;6.00;4.47;;;22.20;90.20;;;;;;5043693;28;20049;-75
2023/07/09 00:07:30;;;;;;;8.00;5.10;;;22.10;90.30;;;;;;5014356;28;20073;-75
2023/07/09 00:10:20;;;;;;;6.70;5.07;;;22.10;90.30;;;;;;5037546;28;20095;-75
2023/07/09 00:13:05;;;;;;;5.43;4.50;;;22.00;90.10;;;;;;5044676;28;20037;-75
2023/07/09 00:15:52;;;;;;;9.45;4.38;;;22.00;90.30;;;;;;5060560;28;20556;-75
2023/07/09 00:18:38;;;;;;;8.45;4.53;;;21.90;90.10;;;;;;5043928;28;20049;-75
2023/07/09 00:21:26;;;;;;;9.05;4.63;;;21.90;90.10;;;;;;5045328;28;20510;-74
2023/07/09 00:24:12;;;;;;;8.52;4.30;;;21.90;90.20;;;;;;5047552;28;20059;-75
2023/07/09 00:26:58;;;;;;;6.90;3.97;;;21.90;90.20;;;;;;5057263;28;20083;-75
2023/07/09 00:29:44;;;;;;;7.57;4.22;;;21.90;90.00;;;;;;5037643;28;20040;-75
2023/07/09 00:32:30;;;;;;;6.03;4.10;;;21.90;89.90;;;;;;5043596;28;20099;-78
2023/07/09 00:35:16;;;;;;;8.45;4.38;;;21.90;89.40;;;;;;5043916;28;20078;-77
2023/07/09 00:38:02;;;;;;;7.03;4.10;;;21.80;89.00;;;;;;5052923;28;20700;-77
2023/07/09 00:41:03;;;;;;;8.60;3.80;;;21.90;88.20;;;;;;5037776;28;20048;-78
2023/07/09 00:43:51;;;;;;;5.40;4.00;;;21.80;88.10;;;;;;5050464;28;20509;-78
2023/07/09 00:46:57;;;;;;;8.13;4.18;;;21.80;88.00;;;;;;5035514;28;20048;-78
2023/07/09 00:49:48;;;;;;;7.05;4.10;;;21.80;87.70;;;;;;5033788;28;20048;-78
2023/07/09 00:52:40;;;;;;;7.95;3.58;;;21.80;87.70;;;;;;5027967;28;20036;-78
2023/07/09 00:55:29;;;;;;;7.47;4.10;;;21.80;88.00;;;;;;5034571;28;20037;-78
2023/07/09 00:58:15;;;;;;;5.63;3.67;;;21.80;87.80;;;;;;5064784;28;20048;-78
2023/07/09 01:01:03;;;;;;;6.18;3.50;;;21.70;87.30;;;;;;5040137;28;20049;-75
2023/07/09 01:03:57;;;;;;;7.75;3.85;;;21.70;87.30;;;;;;5047929;28;20048;-75
2023/07/09 01:06:44;;;;;;;7.00;3.88;;;21.70;87.70;;;;;;5028442;28;20056;-75
2023/07/09 01:09:30;;;;;;;6.45;3.83;;;21.70;88.00;;;;;;5053663;28;20075;-75
2023/07/09 01:12:17;;;;;;;10.73;3.78;;;21.70;87.90;;;;;;5069854;28;20072;-75
2023/07/09 01:15:04;;;;;;;6.97;4.37;;;21.60;87.70;;;;;;5031606;28;20048;-75
2023/07/09 01:17:53;;;;;;;6.32;3.80;;;21.60;87.60;;;;;;5044817;28;20045;-75
2023/07/09 01:20:39;;;;;;;4.95;4.05;;;21.60;87.60;;;;;;5034516;28;20099;-75
2023/07/09 01:23:25;;;;;;;5.35;3.83;;;21.50;87.80;;;;;;5059066;28;20037;-75
2023/07/09 01:26:15;;;;;;;5.57;4.20;;;21.50;88.60;;;;;;5058380;28;20401;-75
2023/07/09 01:29:03;;;;;;;7.35;3.97;;;21.50;89.20;;;;;;5047929;28;20052;-79
2023/07/09 01:31:49;;;;;;;5.72;3.83;;;21.40;89.20;;;;;;5046613;28;20045;-79
2023/07/09 01:34:35;;;;;;;5.35;4.07;;;21.40;89.30;;;;;;5048280;28;20037;-78
2023/07/09 01:37:25;;;;;;;7.70;3.72;;;21.40;89.10;;;;;;5047332;28;20045;-79
2023/07/09 01:40:12;;;;;;;6.10;3.92;;;21.30;89.30;;;;;;5060736;28;20377;-78
2023/07/09 01:42:58;;;;;;;7.30;4.20;;;21.30;90.00;;;;;;5045847;28;20049;-78
2023/07/09 01:45:44;;;;;;;8.57;4.07;;;21.30;89.70;;;;;;5056598;28;20048;-78
2023/07/09 01:48:30;;;;;;;5.80;4.38;;;21.30;90.10;;;;;;5051299;28;20040;-79
2023/07/09 01:51:16;;;;;;;7.88;4.93;;;21.20;90.40;;;;;;5040742;28;20037;-79
2023/07/09 01:54:02;;;;;;;6.78;4.43;;;21.20;90.50;;;;;;5057211;28;20040;-79
2023/07/09 01:56:50;;;;;;;7.78;4.30;;;21.20;90.40;;;;;;5039544;28;20048;-78
2023/07/09 01:59:40;;;;;;;5.40;4.00;;;21.10;90.40;;;;;;5037495;28;20041;-78
2023/07/09 02:02:27;;;;;;;6.70;4.28;;;21.10;90.50;;;;;;5035045;28;20034;-77
2023/07/09 02:05:17;;;;;;;7.57;4.70;;;21.10;90.50;;;;;;5050224;28;20087;-78
2023/07/09 02:08:03;;;;;;;8.98;4.30;;;21.10;90.50;;;;;;5048200;28;20028;-78
2023/07/09 02:10:49;;;;;;;6.10;3.78;;;21.00;90.50;;;;;;5038812;28;20171;-78
2023/07/09 02:13:35;;;;;;;7.35;5.00;;;21.00;90.80;;;;;;5053299;28;20037;-78
2023/07/09 02:16:21;;;;;;;7.97;4.13;;;21.00;91.20;;;;;;5048229;28;20098;-78
2023/07/09 02:19:08;;;;;;;6.07;4.40;;;20.90;92.30;;;;;;5058354;28;20047;-77
2023/07/09 02:21:54;;;;;;;7.75;4.72;;;20.80;93.40;;;;;;5057039;28;20135;-78
2023/07/09 02:24:40;;;;;;;8.80;4.95;;;20.80;93.00;;;;;;5026920;28;20927;-78
2023/07/09 02:27:27;;;;;;;5.03;3.67;;;20.70;92.60;;;;;;5049712;28;20128;-80
2023/07/09 02:30:13;;;;;;;6.07;4.40;;;20.70;92.10;;;;;;5024951;28;20094;-78
2023/07/09 02:32:59;;;;;;;9.77;4.70;;;20.70;92.10;;;;;;5026119;28;20048;-74
2023/07/09 02:35:45;;;;;;;6.60;4.55;;;20.60;92.20;;;;;;5048079;28;20094;-74
2023/07/09 02:38:31;;;;;;;8.00;4.13;;;20.60;92.30;;;;;;5052723;28;20126;-74
2023/07/09 02:41:17;;;;;;;8.45;3.83;;;20.60;92.30;;;;;;5053026;28;20040;-74
2023/07/09 02:44:03;;;;;;;8.00;4.53;;;20.60;92.50;;;;;;5039455;28;20135;-76
2023/07/09 02:46:49;;;;;;;8.07;4.55;;;20.60;92.80;;;;;;5061551;28;20126;-76
2023/07/09 02:49:36;;;;;;;6.65;5.18;;;20.50;92.80;;;;;;5032508;28;20043;-76
2023/07/09 02:52:21;;;;;;;8.15;4.78;;;20.50;92.90;;;;;;5036636;28;20037;-76
2023/07/09 02:55:08;;;;;;;7.15;4.47;;;20.50;93.00;;;;;;5055916;28;20415;-76
2023/07/09 02:57:54;;;;;;;6.65;4.60;;;20.40;93.10;;;;;;5059443;28;20541;-75
2023/07/09 03:00:40;;;;;;;8.55;4.47;;;20.40;93.20;;;;;;5039436;28;20079;-75
2023/07/09 03:03:28;;;;;;;8.73;4.97;;;20.30;93.40;;;;;;5056530;28;20488;-76
2023/07/09 03:06:14;;;;;;;9.70;5.07;;;20.30;93.30;;;;;;5048946;28;20151;-76
2023/07/09 03:09:00;;;;;;;10.95;4.40;;;20.30;93.40;;;;;;5045400;28;20061;-76
2023/07/09 03:11:46;;;;;;;8.43;4.15;;;20.20;93.60;;;;;;5038958;28;20444;-75
2023/07/09 03:14:33;;;;;;;9.48;4.80;;;20.20;94.00;;;;;;5022121;28;20214;-76
2023/07/09 03:17:19;;;;;;;6.68;4.68;;;20.20;93.70;;;;;;5019893;28;20052;-76
2023/07/09 03:20:05;;;;;;;7.25;4.40;;;20.10;93.90;;;;;;5055774;28;20037;-74
2023/07/09 03:22:51;;;;;;;8.77;5.10;;;20.10;94.00;;;;;;5044108;28;20045;-75
2023/07/09 03:25:41;;;;;;;8.48;5.18;;;20.10;94.00;;;;;;5052873;28;20037;-74
2023/07/09 03:28:28;;;;;;;6.47;5.00;;;20.10;94.30;;;;;;5039639;28;20044;-75
2023/07/09 03:31:15;;;;;;;7.73;4.83;;;20.10;94.40;;;;;;5044317;28;20068;-75
2023/07/09 03:34:01;;;;;;;5.82;5.20;;;20.10;94.30;;;;;;5035722;28;20045;-74
2023/07/09 03:36:47;;;;;;;5.70;5.03;;;20.00;94.50;;;;;;5060005;28;20041;-75
2023/07/09 03:39:33;;;;;;;6.53;4.80;;;19.90;94.50;;;;;;5055254;28;20041;-74
2023/07/09 03:42:19;;;;;;;9.13;4.95;;;19.90;94.60;;;;;;5035750;28;20044;-76
2023/07/09 03:45:06;;;;;;;9.32;5.47;;;19.90;94.60;;;;;;5035498;28;20048;-76
2023/07/09 03:47:52;;;;;;;6.15;4.70;;;19.90;94.60;;;;;;5038090;28;20041;-74
2023/07/09 03:50:38;;;;;;;6.30;5.20;;;19.90;94.70;;;;;;5032037;28;20032;-75
2023/07/09 03:53:24;;;;;;;5.97;4.82;;;19.90;94.80;;;;;;5054240;28;20071;-74
2023/07/09 03:56:10;;;;;;;8.07;5.03;;;19.90;95.00;;;;;;5053837;28;20066;-74
2023/07/09 03:58:55;;;;;;;6.43;4.70;;;19.80;95.00;;;;;;5049333;28;20045;-75
2023/07/09 04:01:45;;;;;;;6.95;5.00;;;19.80;95.00;;;;;;5060011;28;20048;-75
2023/07/09 04:04:31;;;;;;;6.60;5.20;;;19.80;95.10;;;;;;5039998;28;20441;-75
2023/07/09 04:07:17;;;;;;;8.90;4.90;;;19.80;95.20;;;;;;5051895;28;20037;-76
2023/07/09 04:10:05;;;;;;;6.70;4.65;;;19.80;95.40;;;;;;5050796;28;20044;-74
2023/07/09 04:12:51;;;;;;;7.72;4.72;;;19.80;95.50;;;;;;5033614;28;20080;-75
2023/07/09 04:15:37;;;;;;;6.60;4.72;;;19.80;95.70;;;;;;5032437;28;20733;-75
2023/07/09 04:18:25;;;;;;;9.30;4.80;;;19.90;95.80;;;;;;5038780;28;20454;-75
2023/07/09 04:21:10;;;;;;;6.75;5.13;;;19.90;96.00;;;;;;5052969;28;20045;-75
2023/07/09 04:23:56;;;;;;;7.13;4.70;;;19.90;96.30;;;;;;5035536;28;20045;-75
2023/07/09 04:26:42;;;;;;;7.97;4.30;;;19.90;96.20;;;;;;5040924;28;20122;-75
2023/07/09 04:29:35;;;;;;;6.80;4.40;;;19.90;96.20;;;;;;5037648;28;20033;-75
2023/07/09 04:32:21;;;;;;;7.32;4.82;;;19.90;96.10;;;;;;5039619;28;20269;-75
2023/07/09 04:35:07;;;;;;;8.68;5.55;;;19.90;96.20;;;;;;5051267;28;20109;-76
2023/07/09 04:37:53;;;;;;;6.43;5.07;;;19.90;96.40;;;;;;5040620;28;20110;-76
2023/07/09 04:40:39;;;;;;;6.80;5.05;;;19.90;96.30;;;;;;5058380;28;20037;-75
2023/07/09 04:43:26;;;;;;;7.18;5.13;;;19.90;95.90;;;;;;5040103;28;20079;-76
2023/07/09 04:46:12;;;;;;;10.05;5.45;;;19.90;95.90;;;;;;5037509;28;20049;-75
2023/07/09 04:49:00;;;;;;;6.97;4.90;;;20.00;96.00;;;;;;5059393;28;20041;-75
2023/07/09 04:51:46;;;;;;;7.22;4.78;;;20.00;96.00;;;;;;5056286;28;20037;-76
2023/07/09 04:54:32;;;;;;;8.20;4.63;;;20.00;96.20;;;;;;5043062;28;20496;-76
2023/07/09 04:57:18;;;;;;;8.52;5.25;;;20.10;96.40;;;;;;5037251;28;20048;-76
2023/07/09 05:00:05;;;;;;;7.50;4.70;;;20.10;96.10;;;;;;5051202;28;20044;-76
2023/07/09 05:02:51;;;;;;;5.78;4.70;;;20.10;96.00;;;;;;5043545;28;20045;-76
2023/07/09 05:05:46;;;;;;;7.00;4.63;;;20.10;96.10;;;;;;5044585;28;20062;-76
2023/07/09 05:08:32;;;;;;;8.73;5.63;;;20.20;96.40;;;;;;5031817;28;20044;-74
2023/07/09 05:11:18;;;;;;;10.13;4.60;;;20.20;96.30;;;;;;5046824;28;20033;-78
2023/07/09 05:14:04;;;;;;;6.90;5.15;;;20.30;96.30;;;;;;5050839;28;20075;-78
2023/07/09 05:16:50;;;;;;;9.68;4.68;;;20.30;96.40;;;;;;5046877;28;20547;-79
2023/07/09 05:19:37;;;;;;;6.85;5.10;;;20.40;96.50;;;;;;5049125;28;20060;-78
2023/07/09 05:22:22;;;;;;;5.88;4.80;;;20.40;96.50;;;;;;5035285;28;20064;-78
2023/07/09 05:25:09;;;;;;;6.70;5.00;;;20.40;96.40;;;;;;5051817;28;20052;-78
2023/07/09 05:27:56;;;;;;;7.25;5.00;;;20.50;96.60;;;;;;5051302;28;20457;-78
2023/07/09 05:30:42;;;;;;;7.17;4.73;;;20.50;96.60;;;;;;5045568;28;20046;-78
2023/07/09 05:33:28;;;;;;;8.68;4.82;;;20.50;96.60;;;;;;5047614;28;20041;-75
2023/07/09 05:36:16;;;;;;;6.55;5.05;;;20.60;96.40;;;;;;5049241;28;20195;-76
2023/07/09 05:39:02;;;;;;;5.50;4.35;;;20.60;96.30;;;;;;5061154;28;20048;-75
2023/07/09 05:41:48;;;;;;;6.10;4.47;;;20.70;96.10;;;;;;5042041;28;20041;-76
2023/07/09 05:44:35;;;;;;;8.27;4.82;;;20.70;96.20;;;;;;5037982;28;20072;-79
2023/07/09 05:47:22;;;;;;;6.67;4.77;;;20.70;96.10;;;;;;5023725;28;20041;-79
2023/07/09 05:50:08;;;;;;;8.93;4.65;;;20.80;96.20;;;;;;5046496;28;20136;-78
2023/07/09 05:52:56;;;;;;;10.20;5.57;;;20.80;96.10;;;;;;5018476;28;20033;-78
2023/07/09 05:55:42;;;;;;;7.57;4.88;;;20.90;96.20;;;;;;5040091;28;20053;-78
2023/07/09 05:58:28;;;;;;;5.93;4.97;;;20.90;96.60;;;;;;5029251;28;20046;-79
2023/07/09 06:01:14;;;;;;;7.53;5.13;;;21.00;96.60;;;;;;5037465;28;20481;-78
2023/07/09 06:04:00;;;;;;;5.32;4.60;;;21.00;96.50;;;;;;5015810;28;20042;-78
2023/07/09 06:06:46;;;;;;;7.65;4.65;;;21.10;96.70;;;;;;5032367;28;20045;-79
2023/07/09 06:09:32;;;;;;;9.35;4.70;;;21.10;96.70;;;;;;5048986;28;20041;-77
2023/07/09 06:12:19;;;;;;;8.27;4.97;;;21.20;96.70;;;;;;5026619;28;20072;-77
2023/07/09 06:15:06;;;;;;;7.60;5.30;;;21.20;96.60;;;;;;5039029;28;20050;-76
2023/07/09 06:17:52;;;;;;;5.60;4.63;;;21.30;96.40;;;;;;5056577;28;20045;-76
2023/07/09 06:20:39;;;;;;;7.10;4.70;;;21.30;96.20;;;;;;5029755;28;20124;-79
2023/07/09 06:23:25;;;;;;;7.57;4.80;;;21.40;96.20;;;;;;5055637;28;20104;-77
2023/07/09 06:26:11;;;;;;;6.25;4.60;;;21.40;96.10;;;;;;5020322;28;20045;-77
2023/07/09 06:28:57;;;;;;;6.53;4.32;;;21.40;96.00;;;;;;5027742;28;20484;-77
2023/07/09 06:31:43;;;;;;;6.63;4.60;;;21.50;96.10;;;;;;5050200;28;20057;-78
2023/07/09 06:34:29;;;;;;;8.32;4.97;;;21.50;96.10;;;;;;5019510;28;20529;-78
2023/07/09 06:37:15;;;;;;;9.65;4.80;;;21.60;96.10;;;;;;5026189;28;20080;-78
2023/07/09 06:40:02;;;;;;;7.40;4.85;;;21.60;95.80;;;;;;5034544;28;20099;-78
2023/07/09 06:42:48;;;;;;;10.50;5.37;;;21.70;95.80;;;;;;5038577;28;20047;-78
2023/07/09 06:45:35;;;;;;;10.25;5.30;;;21.70;95.70;;;;;;5047343;28;20399;-78
2023/07/09 06:48:21;;;;;;;7.93;5.30;;;21.80;95.80;;;;;;5032840;28;20042;-79
2023/07/09 06:51:07;;;;;;;15.23;4.70;;;21.80;95.30;;;;;;5042049;28;20033;-78
2023/07/09 06:53:53;;;;;;;8.43;4.82;;;21.90;95.10;;;;;;5051178;28;20465;-78
2023/07/09 06:56:39;;;;;;;6.78;5.60;;;22.00;95.10;;;;;;5050158;28;20050;-78
2023/07/09 06:59:25;;;;;;;6.68;4.75;;;22.00;95.20;;;;;;5035428;28;20041;-78
2023/07/09 07:02:11;;;;;;;6.85;5.53;;;22.00;95.40;;;;;;5032410;28;20037;-79
2023/07/09 07:04:57;;;;;;;8.25;5.05;;;22.10;95.70;;;;;;5027303;28;20339;-78
2023/07/09 07:07:43;;;;;;;9.07;5.28;;;22.20;95.30;;;;;;5035466;28;20033;-79
2023/07/09 07:10:29;;;;;;;5.90;5.18;;;22.20;95.50;;;;;;5041510;28;20041;-78
2023/07/09 07:13:15;;;;;;;7.05;4.97;;;22.30;95.60;;;;;;5050595;28;20083;-78
2023/07/09 07:16:05;;;;;;;8.07;5.13;;;22.40;95.80;;;;;;5034623;28;20037;-79
2023/07/09 07:18:51;;;;;;;8.25;4.88;;;22.40;95.90;;;;;;5032559;28;20037;-78
2023/07/09 07:21:37;;;;;;;7.32;4.90;;;22.50;96.00;;;;;;5033622;28;20050;-79
2023/07/09 07:24:23;;;;;;;6.90;5.07;;;22.60;96.00;;;;;;5049617;28;20071;-79
2023/07/09 07:27:10;;;;;;;6.47;5.53;;;22.60;96.90;;;;;;5033691;28;20091;-78
2023/07/09 07:29:58;;;;;;;9.43;5.00;;;22.80;96.50;;;;;;5050185;28;20052;-79
2023/07/09 07:32:45;;;;;;;7.35;5.40;;;22.90;96.30;;;;;;5054242;28;20052;-78
2023/07/09 07:35:32;;;;;;;8.48;5.15;;;23.00;96.40;;;;;;5050777;28;20540;-79
2023/07/09 07:38:18;;;;;;;7.00;4.80;;;23.00;96.00;;;;;;5045076;28;20037;-78
2023/07/09 07:41:03;;;;;;;7.20;4.75;;;23.00;95.90;;;;;;5026879;28;20448;-78
2023/07/09 07:43:49;;;;;;;5.80;5.10;;;23.10;95.80;;;;;;5043408;28;20037;-78
2023/07/09 07:46:35;;;;;;;6.72;5.05;;;23.20;95.90;;;;;;5045466;28;20124;-79
2023/07/09 07:49:22;;;;;;;7.28;5.07;;;23.20;95.70;;;;;;5045962;28;20246;-79
2023/07/09 07:52:08;;;;;;;8.32;5.13;;;23.30;95.70;;;;;;5059950;28;20036;-78
2023/07/09 07:54:54;;;;;;;8.30;5.00;;;23.30;95.50;;;;;;5027894;28;20059;-78
2023/07/09 07:57:40;;;;;;;9.60;4.85;;;23.40;95.70;;;;;;5062525;28;20127;-79
2023/07/09 08:00:26;;;;;;;6.38;4.00;;;23.50;95.90;;;;;;5033514;28;20030;-79
2023/07/09 08:03:12;;;;;;;5.22;3.70;;;23.60;95.70;;;;;;5054603;28;20037;-78
2023/07/09 08:05:59;;;;;;;6.88;5.32;;;23.70;95.90;;;;;;5058070;28;20055;-79
2023/07/09 08:08:45;;;;;;;9.10;4.55;;;23.90;96.60;;;;;;5047211;28;20083;-79
2023/07/09 08:11:32;;;;;;;8.98;4.35;;;24.00;95.90;;;;;;5048818;28;20859;-80
2023/07/09 08:14:18;;;;;;;7.53;4.83;;;24.00;95.80;;;;;;5049813;28;20079;-80
2023/07/09 08:17:04;;;;;;;7.63;4.30;;;24.10;96.10;;;;;;5046540;28;20835;-80
2023/07/09 08:19:52;;;;;;;7.18;5.38;;;24.20;95.80;;;;;;5059607;28;20043;-80
2023/07/09 08:22:38;;;;;;;7.15;4.63;;;24.20;95.60;;;;;;5043587;28;20118;-80
2023/07/09 08:25:24;;;;;;;7.70;5.30;;;24.30;95.70;;;;;;5057370;28;20476;-81
2023/07/09 08:28:11;;;;;;;10.50;5.20;;;24.40;96.00;;;;;;5040747;28;20048;-81
2023/07/09 08:30:57;;;;;;;5.95;5.03;;;24.60;95.10;;;;;;5048148;28;20037;-80
2023/07/09 08:33:43;;;;;;;5.65;5.03;;;24.70;95.20;;;;;;5046416;28;20132;-80
2023/07/09 08:36:30;;;;;;;8.75;5.03;;;24.70;95.40;;;;;;5045168;28;20041;-80
2023/07/09 08:39:16;;;;;;;7.80;4.93;;;24.80;94.80;;;;;;5049967;28;20067;-80
2023/07/09 08:42:07;;;;;;;7.60;5.03;;;24.90;94.70;;;;;;5024534;28;20124;-80
2023/07/09 08:45:19;;;;;;;6.38;5.03;;;24.90;95.00;;;;;;5049921;28;20103;-80
2023/07/09 08:48:10;;;;;;;10.13;5.00;;;25.20;94.50;;;;;;5049995;28;20069;-80
2023/07/09 08:50:59;;;;;;;6.57;4.80;;;25.20;94.60;;;;;;5052556;28;20033;-80
2023/07/09 08:54:08;;;;;;;11.30;7.03;;;25.10;94.60;;;;;;5044743;28;20034;-80
2023/07/09 08:56:55;;;;;;;13.30;9.20;;;25.20;94.60;;;;;;5039107;28;20070;-80
2023/07/09 08:59:41;;;;;;;6.72;5.45;;;25.20;94.50;;;;;;5041448;28;20544;-80
2023/07/09 09:02:34;;;;;;;19.40;11.82;;;25.40;94.50;;;;;;5073102;28;20083;-80
2023/07/09 09:05:21;;;;;;;13.07;9.50;;;25.40;94.00;;;;;;5018789;28;20044;-81
2023/07/09 09:08:33;;;;;;;10.45;6.65;;;25.40;94.70;;;;;;5048443;28;20066;-80
2023/07/09 09:11:44;;;;;;;27.42;18.40;;;25.60;94.50;;;;;;5061750;28;20143;-81
2023/07/09 09:14:43;;;;;;;9.50;7.25;;;25.60;94.50;;;;;;5015506;28;20044;-80
2023/07/09 09:17:29;;;;;;;18.20;11.88;;;25.90;94.00;;;;;;5038490;28;20043;-80
2023/07/09 09:20:22;;;;;;;10.98;6.40;;;25.80;94.10;;;;;;5049384;28;20037;-80
2023/07/09 09:23:08;;;;;;;9.93;6.75;;;25.80;94.40;;;;;;5040103;28;20052;-80
2023/07/09 09:25:55;;;;;;;11.00;9.23;;;25.90;94.20;;;;;;5047243;28;20041;-80
2023/07/09 09:28:41;;;;;;;13.43;9.80;;;25.90;94.00;;;;;;5043362;28;20041;-80
2023/07/09 09:31:27;;;;;;;9.40;7.50;;;25.90;93.70;;;;;;5037610;28;20350;-79
2023/07/09 09:34:20;;;;;;;8.30;6.38;;;25.90;93.70;;;;;;5042717;28;20045;-80
2023/07/09 09:37:11;;;;;;;10.60;6.53;;;25.90;93.60;;;;;;5024982;28;20045;-80
2023/07/09 09:39:58;;;;;;;8.65;5.95;;;25.90;93.40;;;;;;5057990;28;20045;-79
2023/07/09 09:42:44;;;;;;;9.07;5.82;;;25.90;93.20;;;;;;5056271;28;20052;-79
2023/07/09 09:45:34;;;;;;;6.72;5.00;;;26.00;92.90;;;;;;5038489;28;20046;-80
2023/07/09 09:48:28;;;;;;;7.90;5.15;;;26.00;92.40;;;;;;5020862;28;20042;-80
2023/07/09 09:51:14;;;;;;;7.00;4.95;;;26.10;91.80;;;;;;5057645;28;20029;-80
2023/07/09 09:54:01;;;;;;;6.18;4.32;;;26.10;91.60;;;;;;5046151;28;20116;-81
2023/07/09 09:56:49;;;;;;;9.25;4.50;;;26.10;91.50;;;;;;5031271;28;20671;-80
2023/07/09 09:59:36;;;;;;;6.82;4.22;;;26.20;91.10;;;;;;5041122;28;20044;-80
2023/07/09 10:02:24;;;;;;;7.10;4.07;;;26.20;90.80;;;;;;5030000;28;20545;-79
2023/07/09 10:05:16;;;;;;;7.05;4.15;;;26.20;90.70;;;;;;5022680;28;20059;-79
2023/07/09 10:08:07;;;;;;;7.25;4.55;;;26.20;90.50;;;;;;5044530;28;20041;-80
2023/07/09 10:10:53;;;;;;;6.93;4.35;;;26.20;90.20;;;;;;5063379;28;20425;-81
2023/07/09 10:13:43;;;;;;;7.15;3.67;;;26.60;88.40;;;;;;5003614;28;20037;-80
2023/07/09 10:16:37;;;;;;;6.55;4.40;;;26.70;89.50;;;;;;5043668;28;20061;-80
2023/07/09 10:19:29;;;;;;;9.35;4.75;;;26.60;89.80;;;;;;5031449;28;20087;-81
2023/07/09 10:22:32;;;;;;;6.70;4.47;;;26.70;88.70;;;;;;5038675;28;20068;-80
2023/07/09 10:25:38;;;;;;;6.43;4.22;;;26.80;88.90;;;;;;5029478;28;20058;-77
2023/07/09 10:28:33;;;;;;;7.03;4.50;;;27.20;84.70;;;;;;5031254;28;20041;-77
2023/07/09 10:31:26;;;;;;;5.15;4.15;;;27.50;87.80;;;;;;5028399;28;20731;-77
2023/07/09 10:34:34;;;;;;;6.05;4.32;;;27.70;86.30;;;;;;5033350;28;20492;-77
2023/07/09 10:37:35;;;;;;;7.00;4.28;;;28.10;83.10;;;;;;5031482;28;20119;-77
2023/07/09 10:40:46;;;;;;;5.90;4.60;;;28.20;81.90;;;;;;5053945;28;20089;-77
2023/07/09 10:43:45;;;;;;;7.45;4.35;;;28.40;80.70;;;;;;5025741;28;20156;-77
2023/07/09 10:46:53;;;;;;;5.10;4.22;;;28.50;80.50;;;;;;5030220;28;20363;-77
2023/07/09 10:49:41;;;;;;;6.57;4.20;;;28.50;81.60;;;;;;5032713;28;20068;-77
2023/07/09 10:52:34;;;;;;;5.35;4.18;;;28.70;81.70;;;;;;5023061;28;20087;-78
2023/07/09 10:55:28;;;;;;;6.60;4.38;;;28.80;80.00;;;;;;5045906;28;20044;-77
2023/07/09 10:58:35;;;;;;;6.95;4.13;;;28.90;79.30;;;;;;5048880;28;20052;-77
2023/07/09 11:01:31;;;;;;;4.47;3.75;;;29.00;78.70;;;;;;5060058;28;20045;-77
2023/07/09 11:04:20;;;;;;;7.13;4.20;;;29.20;79.20;;;;;;5047618;28;20483;-78
2023/07/09 11:07:14;;;;;;;5.25;4.15;;;29.30;80.50;;;;;;5032041;28;20119;-77
2023/07/09 11:10:04;;;;;;;7.95;4.03;;;29.50;77.70;;;;;;5035206;28;20037;-78
2023/07/09 11:12:58;;;;;;;6.75;4.20;;;29.60;76.70;;;;;;5011177;28;20038;-78
2023/07/09 11:15:48;;;;;;;6.75;3.88;;;29.70;73.00;;;;;;5048848;28;20045;-77
2023/07/09 11:18:34;;;;;;;7.65;4.07;;;29.70;76.70;;;;;;5012317;28;20040;-77
2023/07/09 11:21:20;;;;;;;6.07;4.10;;;29.90;74.70;;;;;;5040285;28;20120;-77
2023/07/09 11:24:35;;;;;;;7.95;4.32;;;29.80;74.40;;;;;;5020027;28;20622;-77
2023/07/09 11:27:26;;;;;;;5.70;4.18;;;30.00;74.10;;;;;;5045497;28;20037;-77
2023/07/09 11:30:32;;;;;;;4.90;3.90;;;30.20;75.10;;;;;;5035098;28;20373;-77
2023/07/09 11:33:20;;;;;;;6.22;4.10;;;30.30;73.10;;;;;;5032002;28;20358;-77
2023/07/09 11:36:09;;;;;;;5.30;3.92;;;30.30;72.70;;;;;;5030667;28;20774;-77
2023/07/09 11:38:55;;;;;;;9.18;3.97;;;30.30;76.20;;;;;;5011833;28;20046;-78
2023/07/09 11:41:46;;;;;;;4.50;3.40;;;30.50;72.70;;;;;;5036781;28;20041;-75
2023/07/09 11:44:32;;;;;;;6.22;4.25;;;30.50;74.80;;;;;;5018750;28;20136;-74
2023/07/09 11:47:25;;;;;;;6.13;4.33;;;30.50;72.00;;;;;;5046799;28;20076;-75
2023/07/09 11:50:35;;;;;;;4.97;3.92;;;30.80;68.20;;;;;;5042127;28;20036;-74
2023/07/09 11:53:25;;;;;;;6.32;4.18;;;30.80;69.20;;;;;;5017257;28;20041;-74
2023/07/09 11:56:11;;;;;;;5.95;4.22;;;30.90;70.40;;;;;;5044192;28;20469;-75
2023/07/09 11:58:58;;;;;;;9.32;4.60;;;30.80;69.30;;;;;;5007760;28;20061;-75
2023/07/09 12:01:45;;;;;;;8.23;4.20;;;30.90;68.00;;;;;;5034186;28;20048;-75
2023/07/09 12:04:33;;;;;;;5.70;4.20;;;30.90;67.60;;;;;;5004842;28;20798;-75
2023/07/09 12:07:20;;;;;;;6.32;4.07;;;31.10;70.20;;;;;;5035217;28;20046;-75
2023/07/09 12:10:14;;;;;;;;;;;31.00;69.60;;;;;;5051429;28;20047;-75
2023/07/09 12:13:00;;;;;;;6.28;4.07;;;31.00;70.10;;;;;;5020330;28;20325;-77
2023/07/09 12:15:47;;;;;;;5.20;4.20;;;31.20;67.10;;;;;;5033294;28;20046;-75
2023/07/09 12:18:33;;;;;;;7.20;4.07;;;31.20;67.20;;;;;;5022577;28;20386;-75
2023/07/09 12:21:19;;;;;;;6.85;3.70;;;31.30;69.20;;;;;;5026686;28;20033;-75
2023/07/09 12:24:25;;;;;;;8.40;4.35;;;31.50;70.90;;;;;;5037838;28;20068;-74
2023/07/09 12:27:18;;;;;;;6.20;4.55;;;31.50;68.50;;;;;;5044922;28;20052;-75
2023/07/09 12:30:09;;;;;;;5.93;4.20;;;31.70;69.00;;;;;;5024881;28;20107;-75
2023/07/09 12:32:56;;;;;;;7.57;4.15;;;31.80;67.10;;;;;;4999796;28;20032;-75
2023/07/09 12:35:42;;;;;;;9.55;4.47;;;31.70;68.20;;;;;;5032006;28;20060;-75
2023/07/09 12:38:30;;;;;;;5.55;4.22;;;31.80;69.00;;;;;;4999656;28;20041;-75
2023/07/09 12:41:40;;;;;;;6.07;3.75;;;32.00;67.80;;;;;;5036277;28;20100;-77
2023/07/09 12:44:27;;;;;;;6.97;4.22;;;32.00;66.00;;;;;;5033107;28;20505;-76
2023/07/09 12:47:14;;;;;;;7.00;4.60;;;32.00;67.40;;;;;;5002263;28;20049;-76
2023/07/09 12:50:02;;;;;;;8.87;4.70;;;32.00;63.60;;;;;;5045634;28;20148;-76
2023/07/09 12:52:48;;;;;;;10.02;4.10;;;31.90;65.10;;;;;;5039691;28;20121;-75
2023/07/09 12:55:39;;;;;;;6.17;4.37;;;32.00;65.60;;;;;;5049171;28;20037;-75
2023/07/09 12:58:31;;;;;;;7.65;4.18;;;32.20;65.20;;;;;;5019118;28;20037;-77
2023/07/09 13:01:18;;;;;;;6.72;4.32;;;32.20;65.70;;;;;;5000638;28;20343;-77
2023/07/09 13:04:05;;;;;;;5.43;4.05;;;32.30;65.10;;;;;;5035343;28;20041;-77
2023/07/09 13:06:57;;;;;;;10.55;4.28;;;32.40;66.40;;;;;;5033785;28;20037;-77
2023/07/09 13:09:48;;;;;;;7.45;4.57;;;32.50;66.60;;;;;;5035960;28;20064;-76
2023/07/09 13:12:34;;;;;;;5.55;3.83;;;32.50;65.10;;;;;;5047714;28;20125;-77
2023/07/09 13:15:36;;;;;;;8.25;4.28;;;32.60;66.60;;;;;;5033483;28;20041;-77
2023/07/09 13:18:23;;;;;;;8.35;4.57;;;32.70;63.90;;;;;;5052179;28;20050;-77
2023/07/09 13:21:19;;;;;;;5.97;4.30;;;32.70;65.50;;;;;;5028317;28;20033;-78
2023/07/09 13:24:28;;;;;;;6.88;4.70;;;32.70;62.90;;;;;;5041586;28;20037;-77
2023/07/09 13:27:15;;;;;;;9.32;5.05;;;32.70;61.90;;;;;;5025233;28;20041;-77
2023/07/09 13:30:01;;;;;;;10.10;5.18;;;32.70;62.60;;;;;;5053023;28;20115;-77
2023/07/09 13:32:48;;;;;;;6.63;4.63;;;32.70;62.30;;;;;;5038062;28;20040;-77
2023/07/09 13:35:34;;;;;;;7.28;4.80;;;32.70;62.80;;;;;;5028422;28;20077;-77
2023/07/09 13:38:21;;;;;;;7.60;4.97;;;32.80;62.50;;;;;;5028264;28;20049;-77
2023/07/09 13:41:12;;;;;;;7.93;4.22;;;32.90;63.40;;;;;;5050515;28;20041;-77
2023/07/09 13:43:58;;;;;;;5.63;4.60;;;33.00;65.40;;;;;;5040838;28;20048;-77
2023/07/09 13:46:44;;;;;;;8.88;4.65;;;33.00;62.60;;;;;;5033161;28;20041;-77
2023/07/09 13:49:30;;;;;;;11.05;4.32;;;33.00;62.10;;;;;;5029974;28;20047;-76
2023/07/09 13:52:40;;;;;;;5.82;4.40;;;33.10;63.20;;;;;;5045912;28;20037;-77
2023/07/09 13:55:26;;;;;;;7.30;4.50;;;33.20;62.40;;;;;;5050777;28;20453;-77
2023/07/09 13:58:13;;;;;;;7.40;4.67;;;33.20;61.30;;;;;;5022765;28;20114;-76
2023/07/09 14:01:08;;;;;;;8.20;4.47;;;33.10;61.30;;;;;;5046481;28;20052;-77
2023/07/09 14:03:55;;;;;;;7.95;4.60;;;33.10;62.10;;;;;;5021413;28;20037;-76
2023/07/09 14:06:41;;;;;;;7.88;4.10;;;33.20;64.80;;;;;;5055515;28;20053;-77
2023/07/09 14:09:27;;;;;;;7.38;4.75;;;33.40;64.90;;;;;;5055562;28;20093;-77
2023/07/09 14:12:13;;;;;;;8.13;4.85;;;33.40;62.80;;;;;;5017306;28;20059;-77
2023/07/09 14:15:00;;;;;;;5.82;4.40;;;33.40;62.90;;;;;;5058408;28;20040;-76
2023/07/09 14:17:46;;;;;;;6.85;4.50;;;33.30;63.00;;;;;;5047551;28;20127;-77
2023/07/09 14:20:32;;;;;;;8.88;4.53;;;33.30;63.50;;;;;;5017809;28;20087;-77
2023/07/09 14:23:19;;;;;;;5.68;4.57;;;33.40;66.20;;;;;;5039330;28;20098;-77
2023/07/09 14:26:05;;;;;;;7.17;4.60;;;33.50;62.90;;;;;;5047825;28;20550;-77
2023/07/09 14:28:51;;;;;;;7.80;4.85;;;33.40;62.80;;;;;;5058108;28;20064;-77
2023/07/09 14:31:37;;;;;;;7.80;4.70;;;33.50;63.00;;;;;;5032825;28;20384;-77
2023/07/09 14:34:27;;;;;;;6.75;4.50;;;33.60;64.00;;;;;;5039775;28;20033;-77
2023/07/09 14:37:13;;;;;;;6.35;4.55;;;33.60;62.00;;;;;;5052725;28;20041;-77